Time;durP1;ratioP1;P1;durP2;ratioP2;P2;SDS_P1;SDS_P2;PMS_P1;PMS_P2;Temp;Humidity;BMP_temperature;BMP_pressure;BME280_temperature;BME280_humidity;BME280_pressure;Samples;Min_cycle;Max_cycle;Signal;HPM_P1;HPM_P2
2023/08/28 00:02:11;;;;;;;9.65;6.53;;;24.00;72.50;;;;;;4238431;28;20086;-60
2023/08/28 00:04:31;;;;;;;5.45;5.32;;;23.90;72.50;;;;;;4235750;28;20100;-60
2023/08/28 00:06:52;;;;;;;6.43;5.85;;;23.90;72.50;;;;;;4243190;28;20054;-61
2023/08/28 00:09:12;;;;;;;6.18;5.82;;;24.10;71.00;;;;;;4244638;28;20234;-60
2023/08/28 00:11:32;;;;;;;5.32;5.22;;;24.20;70.20;;;;;;4240786;28;20123;-60
2023/08/28 00:13:52;;;;;;;5.80;5.57;;;24.30;69.50;;;;;;4241288;28;20097;-60
2023/08/28 00:16:11;;;;;;;6.75;6.30;;;24.40;69.90;;;;;;4245210;28;20246;-61
2023/08/28 00:18:32;;;;;;;7.00;6.45;;;24.30;69.50;;;;;;4229431;28;20243;-61
2023/08/28 00:20:54;;;;;;;5.47;5.28;;;24.40;69.20;;;;;;4248338;28;20136;-60
2023/08/28 00:23:14;;;;;;;6.10;5.80;;;24.60;67.60;;;;;;4246391;28;20042;-60
2023/08/28 00:25:33;;;;;;;6.93;6.22;;;24.60;68.40;;;;;;4238672;28;20089;-60
2023/08/28 00:27:53;;;;;;;13.27;6.10;;;24.70;68.40;;;;;;4233695;28;20050;-60
2023/08/28 00:30:13;;;;;;;6.55;6.25;;;24.70;67.70;;;;;;4241433;28;20105;-60
2023/08/28 00:32:34;;;;;;;5.70;5.47;;;24.70;67.60;;;;;;4240352;28;20050;-60
2023/08/28 00:34:54;;;;;;;5.63;5.32;;;24.90;67.30;;;;;;4239581;28;20092;-60
2023/08/28 00:37:14;;;;;;;6.60;6.30;;;24.80;67.80;;;;;;4243143;28;20062;-60
2023/08/28 00:39:33;;;;;;;7.50;6.88;;;24.80;68.70;;;;;;4241794;28;20403;-60
2023/08/28 00:41:53;;;;;;;5.32;5.13;;;24.80;67.90;;;;;;4241174;27;20046;-61
2023/08/28 00:44:14;;;;;;;5.97;5.47;;;24.80;68.60;;;;;;4246533;28;20107;-61
2023/08/28 00:46:34;;;;;;;6.55;6.07;;;25.00;68.00;;;;;;4245675;27;20038;-60
2023/08/28 00:48:54;;;;;;;6.05;5.65;;;25.00;68.60;;;;;;4246158;28;20046;-60
2023/08/28 00:51:14;;;;;;;6.05;5.75;;;25.00;69.10;;;;;;4253693;28;20046;-60
2023/08/28 00:53:36;;;;;;;6.35;5.85;;;25.00;69.20;;;;;;4248172;28;20120;-60
2023/08/28 00:55:56;;;;;;;6.55;5.82;;;25.00;69.10;;;;;;4245918;28;20035;-60
2023/08/28 00:58:16;;;;;;;5.88;5.63;;;25.10;69.30;;;;;;4248431;28;20043;-60
2023/08/28 01:00:36;;;;;;;6.53;6.07;;;25.10;70.60;;;;;;4242091;28;20047;-60
2023/08/28 01:02:56;;;;;;;5.80;5.60;;;25.10;70.30;;;;;;4239660;22;20063;-59
2023/08/28 01:05:16;;;;;;;7.05;6.40;;;25.20;70.90;;;;;;4208529;28;20050;-58
2023/08/28 01:07:56;;;;;;;6.93;5.70;;;25.20;71.50;;;;;;4208324;28;20051;-59
2023/08/28 01:10:27;;;;;;;6.43;5.93;;;25.20;73.20;;;;;;4209955;28;20085;-58
2023/08/28 01:12:59;;;;;;;6.38;5.97;;;24.80;77.60;;;;;;4209034;28;20102;-58
2023/08/28 01:15:21;;;;;;;6.63;6.10;;;24.50;80.40;;;;;;4208616;28;20044;-58
2023/08/28 01:17:42;;;;;;;8.35;7.30;;;24.20;82.80;;;;;;4208777;28;20261;-61
2023/08/28 01:20:04;;;;;;;12.85;8.63;;;23.40;88.10;;;;;;4208002;28;20085;-65
2023/08/28 01:22:50;;;;;;;9.02;8.25;;;22.60;93.30;;;;;;4211159;28;20048;-60
2023/08/28 01:25:12;;;;;;;8.95;8.13;;;21.60;97.80;;;;;;4209323;28;20098;-59
2023/08/28 01:27:32;;;;;;;9.57;8.75;;;21.20;99.90;;;;;;4211311;28;20065;-59
2023/08/28 01:30:06;;;;;;;11.15;10.60;;;21.00;99.90;;;;;;4211088;28;20082;-59
2023/08/28 01:32:26;;;;;;;12.27;11.43;;;20.80;99.90;;;;;;4209020;28;20039;-60
2023/08/28 01:34:46;;;;;;;13.80;12.95;;;20.60;99.90;;;;;;4210465;28;20104;-60
2023/08/28 01:37:14;;;;;;;18.73;14.18;;;20.20;99.90;;;;;;4209205;28;20081;-61
2023/08/28 01:39:42;;;;;;;13.85;12.57;;;20.10;99.90;;;;;;4208078;28;20044;-60
2023/08/28 01:42:03;;;;;;;14.20;13.23;;;19.80;99.90;;;;;;4208501;28;20048;-60
2023/08/28 01:44:27;;;;;;;14.43;13.18;;;19.80;99.90;;;;;;4208705;28;20039;-59
2023/08/28 01:46:48;;;;;;;14.73;13.85;;;19.70;99.90;;;;;;4208268;28;20050;-59
2023/08/28 01:49:08;;;;;;;13.80;13.20;;;19.80;99.90;;;;;;4208430;28;20115;-59
2023/08/28 01:51:28;;;;;;;14.38;13.25;;;19.80;99.90;;;;;;4211557;28;20093;-59
2023/08/28 01:53:49;;;;;;;15.05;13.85;;;19.70;99.90;;;;;;4208832;28;20044;-59
2023/08/28 01:56:09;;;;;;;15.98;14.65;;;19.80;99.90;;;;;;4207948;28;20139;-58
2023/08/28 01:58:32;;;;;;;15.10;14.13;;;19.80;99.90;;;;;;4209110;28;20085;-58
2023/08/28 02:00:52;;;;;;;14.80;14.10;;;19.70;99.90;;;;;;4209457;28;20108;-59
2023/08/28 02:03:12;;;;;;;17.05;15.82;;;19.60;99.90;;;;;;4209101;28;20046;-59
2023/08/28 02:05:32;;;;;;;15.18;13.95;;;19.50;99.90;;;;;;4207817;28;20078;-59
2023/08/28 02:07:52;;;;;;;16.05;14.38;;;19.50;99.90;;;;;;4207462;28;20082;-59
2023/08/28 02:10:12;;;;;;;15.23;14.10;;;19.50;99.90;;;;;;4209152;28;20074;-58
2023/08/28 02:12:32;;;;;;;13.63;12.82;;;19.50;99.90;;;;;;4208946;28;20043;-58
2023/08/28 02:14:52;;;;;;;16.50;15.07;;;19.50;99.90;;;;;;4207887;28;20110;-59
2023/08/28 02:17:12;;;;;;;15.48;13.85;;;19.60;99.90;;;;;;4209088;28;20063;-60
2023/08/28 02:19:32;;;;;;;14.93;13.77;;;19.50;99.90;;;;;;4207565;28;20063;-62
2023/08/28 02:21:52;;;;;;;15.75;14.20;;;19.40;99.90;;;;;;4206904;28;20081;-60
2023/08/28 02:24:12;;;;;;;14.98;13.60;;;19.40;99.90;;;;;;4207207;28;20099;-60
2023/08/28 02:26:32;;;;;;;17.35;13.90;;;19.40;99.90;;;;;;4207328;28;20048;-60
2023/08/28 02:28:52;;;;;;;15.38;14.38;;;19.30;99.90;;;;;;4208008;28;20047;-60
2023/08/28 02:31:13;;;;;;;14.77;13.57;;;19.40;99.90;;;;;;4206490;28;20047;-61
2023/08/28 02:33:33;;;;;;;13.57;12.57;;;19.40;99.90;;;;;;4208384;28;20108;-60
2023/08/28 02:35:53;;;;;;;14.75;13.32;;;19.50;99.90;;;;;;4208298;28;20228;-59
2023/08/28 02:38:13;;;;;;;13.18;12.27;;;19.50;99.90;;;;;;4207637;28;20369;-60
2023/08/28 02:40:33;;;;;;;12.82;12.15;;;19.50;99.90;;;;;;4207712;28;20052;-60
2023/08/28 02:42:54;;;;;;;15.35;14.25;;;19.50;99.90;;;;;;4207023;28;20588;-60
2023/08/28 02:45:15;;;;;;;15.10;14.00;;;19.40;99.90;;;;;;4207032;28;20266;-60
2023/08/28 02:47:35;;;;;;;16.38;14.82;;;19.30;99.90;;;;;;4207576;28;20039;-60
2023/08/28 02:49:55;;;;;;;13.02;12.27;;;19.30;99.90;;;;;;4207979;28;20070;-59
2023/08/28 02:52:15;;;;;;;13.30;12.35;;;19.30;99.90;;;;;;4208640;28;20051;-60
2023/08/28 02:54:35;;;;;;;12.82;11.57;;;19.40;99.90;;;;;;4207970;28;20090;-59
2023/08/28 02:56:55;;;;;;;11.75;10.63;;;19.30;99.90;;;;;;4207374;28;20083;-59
2023/08/28 02:59:15;;;;;;;10.20;9.35;;;19.40;99.90;;;;;;4210182;28;20103;-59
2023/08/28 03:01:35;;;;;;;11.65;10.45;;;19.50;99.90;;;;;;4206444;28;20058;-59
2023/08/28 03:03:56;;;;;;;9.30;8.45;;;19.60;99.90;;;;;;4210001;28;20047;-59
2023/08/28 03:06:16;;;;;;;10.90;9.65;;;19.50;99.90;;;;;;4209228;28;20047;-59
2023/08/28 03:08:36;;;;;;;8.70;7.97;;;19.50;99.90;;;;;;4206814;28;20079;-59
2023/08/28 03:10:56;;;;;;;9.30;8.45;;;19.50;99.90;;;;;;4207786;28;20070;-59
2023/08/28 03:13:17;;;;;;;8.60;7.82;;;19.50;99.90;;;;;;4207298;28;20090;-59
2023/08/28 03:15:37;;;;;;;7.53;6.32;;;19.50;99.90;;;;;;4207995;28;20078;-59
2023/08/28 03:17:57;;;;;;;6.95;5.80;;;19.50;99.90;;;;;;4208031;28;20407;-59
2023/08/28 03:20:17;;;;;;;6.53;6.13;;;19.50;99.90;;;;;;4207397;28;20135;-59
2023/08/28 03:22:37;;;;;;;7.97;6.95;;;19.50;99.90;;;;;;4206569;28;20039;-58
2023/08/28 03:24:57;;;;;;;5.45;5.00;;;19.60;99.90;;;;;;4208798;28;20115;-59
2023/08/28 03:27:17;;;;;;;6.65;6.18;;;19.60;99.90;;;;;;4209465;28;20111;-59
2023/08/28 03:29:37;;;;;;;6.93;6.13;;;19.60;99.90;;;;;;4210303;28;20051;-59
2023/08/28 03:31:57;;;;;;;9.95;6.35;;;19.50;99.90;;;;;;4207591;28;20047;-59
2023/08/28 03:34:17;;;;;;;8.25;5.68;;;19.50;99.90;;;;;;4208457;28;20075;-59
2023/08/28 03:36:37;;;;;;;6.47;6.07;;;19.50;99.90;;;;;;4208703;28;20098;-59
2023/08/28 03:38:57;;;;;;;6.10;5.40;;;19.50;99.90;;;;;;4205694;28;20067;-59
2023/08/28 03:41:16;;;;;;;6.43;5.10;;;19.50;99.90;;;;;;4206719;28;20067;-59
2023/08/28 03:43:36;;;;;;;5.78;5.38;;;19.60;99.90;;;;;;4206511;28;20051;-59
2023/08/28 03:45:56;;;;;;;6.03;5.13;;;19.60;99.90;;;;;;4206673;28;20047;-59
2023/08/28 03:48:16;;;;;;;9.20;4.72;;;19.70;99.90;;;;;;4206657;28;20047;-59
2023/08/28 03:50:37;;;;;;;4.88;4.68;;;19.80;99.90;;;;;;4206932;28;20310;-60
2023/08/28 03:52:57;;;;;;;6.35;4.72;;;19.80;99.90;;;;;;4205333;28;20286;-61
2023/08/28 03:55:17;;;;;;;8.88;5.90;;;19.90;99.90;;;;;;4206496;28;20126;-61
2023/08/28 03:57:37;;;;;;;5.28;4.57;;;19.90;99.90;;;;;;4206522;28;20235;-61
2023/08/28 03:59:57;;;;;;;6.68;5.88;;;19.90;99.90;;;;;;4206898;28;20400;-61
2023/08/28 04:02:19;;;;;;;5.18;4.82;;;19.90;99.90;;;;;;4206271;28;20116;-61
2023/08/28 04:04:39;;;;;;;5.78;5.38;;;19.90;99.90;;;;;;4205977;28;20048;-61
2023/08/28 04:07:01;;;;;;;7.13;6.15;;;20.00;99.90;;;;;;4207248;28;20055;-61
2023/08/28 04:09:21;;;;;;;7.15;6.45;;;19.90;99.90;;;;;;4206418;28;20051;-61
2023/08/28 04:11:42;;;;;;;6.38;5.82;;;20.00;99.90;;;;;;4206329;28;20074;-61
2023/08/28 04:14:02;;;;;;;6.32;5.78;;;20.10;99.90;;;;;;4206357;28;20086;-61
2023/08/28 04:16:22;;;;;;;11.10;7.10;;;20.10;99.90;;;;;;4208252;28;20248;-61
2023/08/28 04:18:42;;;;;;;7.47;6.22;;;20.10;99.90;;;;;;4208492;28;20086;-62
2023/08/28 04:21:03;;;;;;;5.13;4.78;;;20.00;99.90;;;;;;4206307;28;20102;-61
2023/08/28 04:23:24;;;;;;;4.90;4.00;;;19.90;99.90;;;;;;4208045;28;20043;-61
2023/08/28 04:25:43;;;;;;;6.57;4.32;;;19.90;99.90;;;;;;4207490;28;20081;-62
2023/08/28 04:28:03;;;;;;;2.97;2.72;;;19.90;99.90;;;;;;4207505;28;20051;-64
2023/08/28 04:30:23;;;;;;;5.05;4.45;;;19.90;99.90;;;;;;4208881;28;20054;-63
2023/08/28 04:32:43;;;;;;;4.68;3.17;;;19.70;99.90;;;;;;4207221;28;20094;-62
2023/08/28 04:35:05;;;;;;;2.38;2.17;;;19.60;99.90;;;;;;4206724;28;20047;-61
2023/08/28 04:37:26;;;;;;;3.55;1.90;;;19.40;99.90;;;;;;4206141;28;20035;-61
2023/08/28 04:39:46;;;;;;;4.07;3.08;;;19.30;99.90;;;;;;4204246;28;20056;-61
2023/08/28 04:42:07;;;;;;;3.63;3.17;;;19.30;99.90;;;;;;4206859;28;20043;-62
2023/08/28 04:44:27;;;;;;;4.60;3.58;;;19.40;99.90;;;;;;4205979;28;20374;-62
2023/08/28 04:46:47;;;;;;;6.63;2.50;;;19.30;99.90;;;;;;4210565;28;20079;-62
2023/08/28 04:49:07;;;;;;;3.13;2.80;;;19.20;99.90;;;;;;4208873;28;20075;-61
2023/08/28 04:51:26;;;;;;;4.35;2.72;;;19.10;99.90;;;;;;4206877;28;20415;-60
2023/08/28 04:53:47;;;;;;;4.22;2.00;;;19.00;99.90;;;;;;4209430;28;20094;-61
2023/08/28 04:56:07;;;;;;;4.00;3.08;;;19.00;99.90;;;;;;4207323;28;20086;-61
2023/08/28 04:58:27;;;;;;;3.70;2.85;;;19.00;99.90;;;;;;4207819;28;20090;-61
2023/08/28 05:00:49;;;;;;;3.05;2.88;;;19.00;99.90;;;;;;4206656;28;20265;-61
2023/08/28 05:03:09;;;;;;;6.03;3.45;;;19.00;99.90;;;;;;4205928;28;20362;-61
2023/08/28 05:05:29;;;;;;;2.35;2.15;;;19.00;99.90;;;;;;4205176;28;20361;-61
2023/08/28 05:07:50;;;;;;;9.75;3.00;;;19.00;99.90;;;;;;4206086;28;20102;-61
2023/08/28 05:10:10;;;;;;;4.15;2.03;;;18.90;99.90;;;;;;4208724;28;20055;-60
2023/08/28 05:12:30;;;;;;;4.45;2.00;;;19.00;99.90;;;;;;4210339;28;20075;-60
2023/08/28 05:14:49;;;;;;;3.20;2.80;;;19.00;99.90;;;;;;4206551;28;20055;-61
2023/08/28 05:17:09;;;;;;;3.33;2.25;;;19.00;99.90;;;;;;4208271;28;20047;-60
2023/08/28 05:19:29;;;;;;;2.58;2.35;;;19.00;99.90;;;;;;4208305;28;20081;-60
2023/08/28 05:21:50;;;;;;;5.97;2.70;;;19.00;99.90;;;;;;4205945;28;20047;-62
2023/08/28 05:24:09;;;;;;;3.90;2.30;;;18.90;99.90;;;;;;4205582;28;20044;-61
2023/08/28 05:26:29;;;;;;;3.00;2.50;;;18.90;99.90;;;;;;4205664;28;20047;-62
2023/08/28 05:28:49;;;;;;;6.00;2.38;;;18.90;99.90;;;;;;4204873;28;20055;-64
2023/08/28 05:31:09;;;;;;;5.10;2.78;;;18.90;99.90;;;;;;4204085;28;20079;-65
2023/08/28 05:33:31;;;;;;;5.28;2.63;;;18.90;99.90;;;;;;4208455;28;20043;-63
2023/08/28 05:35:51;;;;;;;4.53;3.08;;;18.80;99.90;;;;;;4208953;28;20362;-62
2023/08/28 05:38:11;;;;;;;2.95;2.50;;;18.70;99.90;;;;;;4207902;28;20114;-61
2023/08/28 05:40:30;;;;;;;6.97;2.50;;;18.70;99.90;;;;;;4208854;28;20039;-61
2023/08/28 05:42:50;;;;;;;4.13;3.13;;;18.70;99.90;;;;;;4209290;28;20047;-61
2023/08/28 05:45:10;;;;;;;4.07;2.13;;;18.70;99.90;;;;;;4209071;28;20048;-61
2023/08/28 05:47:32;;;;;;;5.05;3.08;;;18.70;99.90;;;;;;4210399;28;20098;-61
2023/08/28 05:49:52;;;;;;;4.53;2.17;;;18.60;99.90;;;;;;4209097;28;20052;-61
2023/08/28 05:52:12;;;;;;;2.63;2.42;;;18.70;99.90;;;;;;4207853;28;20418;-61
2023/08/28 05:54:32;;;;;;;2.13;1.92;;;18.70;99.90;;;;;;4208257;28;20062;-60
2023/08/28 05:56:52;;;;;;;4.05;2.35;;;18.70;99.90;;;;;;4208573;28;20232;-61
2023/08/28 05:59:12;;;;;;;6.10;2.50;;;18.80;99.90;;;;;;4209499;28;20050;-62
2023/08/28 06:01:32;;;;;;;3.47;2.00;;;18.80;99.90;;;;;;4209724;28;20089;-61
2023/08/28 06:03:55;;;;;;;5.22;2.05;;;18.80;99.90;;;;;;4207911;28;20086;-61
2023/08/28 06:06:15;;;;;;;6.20;2.67;;;18.80;99.90;;;;;;4207765;28;20040;-61
2023/08/28 06:08:36;;;;;;;4.13;2.53;;;18.90;99.90;;;;;;4207439;28;20417;-61
2023/08/28 06:10:56;;;;;;;3.25;2.63;;;18.90;99.90;;;;;;4209637;28;20051;-60
2023/08/28 06:13:16;;;;;;;4.15;2.25;;;18.90;99.90;;;;;;4210118;28;20051;-61
2023/08/28 06:15:37;;;;;;;9.02;2.97;;;18.80;99.90;;;;;;4208031;28;20408;-61
2023/08/28 06:17:57;;;;;;;6.43;1.83;;;18.90;99.90;;;;;;4208343;28;20075;-61
2023/08/28 06:20:17;;;;;;;4.20;2.00;;;18.90;99.90;;;;;;4207366;28;20047;-61
2023/08/28 06:22:38;;;;;;;3.13;2.38;;;19.00;99.90;;;;;;4209609;28;20039;-60
2023/08/28 06:25:01;;;;;;;3.45;1.50;;;18.90;99.90;;;;;;4210336;28;20142;-60
2023/08/28 06:27:20;;;;;;;3.22;2.58;;;18.90;99.90;;;;;;4207902;28;20039;-59
2023/08/28 06:29:41;;;;;;;2.60;1.75;;;19.00;99.90;;;;;;4208541;28;20043;-60
2023/08/28 06:32:00;;;;;;;3.40;1.40;;;19.00;99.90;;;;;;4208284;28;20062;-60
2023/08/28 06:34:20;;;;;;;5.43;1.85;;;19.00;99.90;;;;;;4207564;28;20044;-60
2023/08/28 06:36:41;;;;;;;6.38;1.77;;;19.00;99.90;;;;;;4208874;28;20043;-60
2023/08/28 06:39:02;;;;;;;5.60;2.45;;;19.10;99.90;;;;;;4209072;28;20090;-59
2023/08/28 06:41:22;;;;;;;3.85;1.77;;;19.20;99.90;;;;;;4206529;28;20051;-60
2023/08/28 06:43:43;;;;;;;3.22;1.50;;;19.30;99.90;;;;;;4208312;28;20048;-59
2023/08/28 06:46:03;;;;;;;9.23;2.05;;;19.30;99.90;;;;;;4207436;28;20362;-59
2023/08/28 06:48:23;;;;;;;2.72;1.42;;;19.20;99.90;;;;;;4220651;28;20055;-59
2023/08/28 06:50:43;;;;;;;3.08;1.60;;;19.40;99.90;;;;;;4209324;28;20094;-60
2023/08/28 06:53:03;;;;;;;2.53;1.17;;;19.40;99.90;;;;;;4207365;28;20075;-59
2023/08/28 06:55:25;;;;;;;3.15;1.48;;;19.40;99.90;;;;;;4206576;28;20075;-59
2023/08/28 06:57:47;;;;;;;1.52;1.30;;;19.30;99.90;;;;;;4207512;28;20075;-59
2023/08/28 07:00:11;;;;;;;5.50;1.65;;;19.30;99.90;;;;;;4206999;28;20303;-59
2023/08/28 07:02:31;;;;;;;3.20;1.60;;;19.40;99.90;;;;;;4206741;28;20239;-58
2023/08/28 07:04:51;;;;;;;4.20;1.40;;;19.70;99.90;;;;;;4206899;28;20047;-59
2023/08/28 07:07:15;;;;;;;3.17;1.63;;;19.80;99.90;;;;;;4207616;28;20102;-58
2023/08/28 07:09:34;;;;;;;4.32;1.63;;;19.90;99.90;;;;;;4208054;28;20044;-58
2023/08/28 07:11:55;;;;;;;5.15;1.30;;;20.00;99.90;;;;;;4207064;28;20239;-58
2023/08/28 07:14:15;;;;;;;2.53;1.50;;;20.00;99.90;;;;;;4208479;28;20070;-58
2023/08/28 07:16:34;;;;;;;4.47;1.48;;;20.10;99.90;;;;;;4208880;28;20302;-58
2023/08/28 07:18:55;;;;;;;2.25;1.15;;;20.40;99.90;;;;;;4209289;28;20405;-58
2023/08/28 07:21:15;;;;;;;5.15;1.30;;;20.50;99.90;;;;;;4207927;28;20116;-58
2023/08/28 07:23:36;;;;;;;9.05;2.45;;;20.50;99.90;;;;;;4209080;28;20054;-58
2023/08/28 07:25:58;;;;;;;2.00;1.30;;;20.70;99.90;;;;;;4208297;28;20083;-57
2023/08/28 07:28:19;;;;;;;5.90;1.25;;;20.90;99.90;;;;;;4207282;28;20051;-57
2023/08/28 07:30:41;;;;;;;5.47;1.60;;;21.10;99.90;;;;;;4207260;28;20154;-57
2023/08/28 07:33:01;;;;;;;1.27;1.10;;;21.10;99.90;;;;;;4206526;28;20055;-57
2023/08/28 07:35:21;;;;;;;3.05;1.08;;;20.90;99.90;;;;;;4207068;28;20506;-57
2023/08/28 07:37:40;;;;;;;6.70;1.38;;;20.90;99.90;;;;;;4206642;28;20043;-58
2023/08/28 07:40:03;;;;;;;4.28;1.17;;;21.10;99.90;;;;;;4206726;28;20047;-57
2023/08/28 07:42:23;;;;;;;1.67;0.90;;;21.30;99.90;;;;;;4210973;28;20047;-57
2023/08/28 07:44:45;;;;;;;4.22;1.60;;;21.10;99.90;;;;;;4209340;28;20051;-57
2023/08/28 07:47:05;;;;;;;1.60;1.00;;;21.20;99.90;;;;;;4207706;28;20094;-56
2023/08/28 07:49:25;;;;;;;3.42;1.00;;;21.10;99.90;;;;;;4208299;28;20279;-57
2023/08/28 07:51:45;;;;;;;1.60;1.08;;;20.90;99.90;;;;;;4208853;28;20043;-57
2023/08/28 07:54:05;;;;;;;3.78;1.10;;;21.00;99.90;;;;;;4207549;28;20090;-57
2023/08/28 07:56:24;;;;;;;1.80;0.90;;;21.10;99.90;;;;;;4207282;28;20047;-57
2023/08/28 07:58:45;;;;;;;1.88;0.90;;;21.40;99.90;;;;;;4206849;28;20102;-57
2023/08/28 08:01:05;;;;;;;4.22;1.00;;;21.30;99.90;;;;;;4206244;28;20108;-57
2023/08/28 08:03:26;;;;;;;2.15;1.00;;;21.20;99.90;;;;;;4205657;28;20051;-57
2023/08/28 08:05:47;;;;;;;4.45;1.48;;;21.30;99.90;;;;;;4209954;28;20044;-57
2023/08/28 08:08:07;;;;;;;5.03;1.10;;;21.30;99.90;;;;;;4210237;28;20082;-58
2023/08/28 08:10:27;;;;;;;2.55;1.48;;;21.30;99.90;;;;;;4207879;28;20050;-58
2023/08/28 08:12:47;;;;;;;1.60;1.45;;;21.30;99.90;;;;;;4209674;28;20055;-58
2023/08/28 08:15:08;;;;;;;2.55;1.00;;;21.30;99.90;;;;;;4209912;28;20470;-57
2023/08/28 08:17:28;;;;;;;3.58;1.10;;;21.20;99.90;;;;;;4205505;28;20054;-57
2023/08/28 08:19:48;;;;;;;2.08;1.80;;;21.00;99.90;;;;;;4207818;28;20047;-57
2023/08/28 08:22:08;;;;;;;1.48;1.13;;;20.90;99.90;;;;;;4205483;28;20040;-57
2023/08/28 08:24:28;;;;;;;1.90;1.05;;;20.80;99.90;;;;;;4205953;28;20059;-58
2023/08/28 08:26:49;;;;;;;2.90;1.73;;;20.60;99.90;;;;;;4206214;28;20747;-57
2023/08/28 08:29:10;;;;;;;2.67;1.25;;;20.50;99.90;;;;;;4203440;28;20063;-57
2023/08/28 08:31:29;;;;;;;3.63;1.00;;;20.40;99.90;;;;;;4205908;28;20115;-57
2023/08/28 08:33:49;;;;;;;1.60;1.38;;;20.30;99.90;;;;;;4206634;28;20055;-57
2023/08/28 08:36:13;;;;;;;3.08;1.30;;;20.30;99.90;;;;;;4206469;28;20074;-57
2023/08/28 08:38:34;;;;;;;1.08;1.08;;;20.30;99.90;;;;;;4206232;28;20369;-57
2023/08/28 08:40:55;;;;;;;4.25;0.98;;;20.20;99.90;;;;;;4206519;28;20075;-58
2023/08/28 08:43:15;;;;;;;5.00;1.10;;;20.10;99.90;;;;;;4207470;28;20047;-57
2023/08/28 08:45:38;;;;;;;1.67;1.10;;;20.10;99.90;;;;;;4206142;28;20043;-57
2023/08/28 08:47:59;;;;;;;1.02;1.00;;;20.10;99.90;;;;;;4206856;28;20094;-58
2023/08/28 08:50:22;;;;;;;2.70;0.95;;;20.30;99.90;;;;;;4206887;28;20063;-58
2023/08/28 08:52:43;;;;;;;3.55;1.33;;;20.30;99.90;;;;;;4206475;28;20702;-57
2023/08/28 08:55:12;;;;;;;1.25;1.10;;;20.40;99.90;;;;;;4206503;28;20061;-57
2023/08/28 08:57:42;;;;;;;2.78;0.90;;;20.40;99.90;;;;;;4205792;28;20114;-57
2023/08/28 09:00:07;;;;;;;3.15;1.00;;;20.40;99.90;;;;;;4205613;28;20043;-57
2023/08/28 09:02:30;;;;;;;2.05;1.00;;;20.40;99.90;;;;;;4208993;28;20073;-57
2023/08/28 09:04:50;;;;;;;4.13;1.13;;;20.40;99.90;;;;;;4206793;28;20114;-56
2023/08/28 09:07:10;;;;;;;3.95;1.00;;;20.40;99.90;;;;;;4208540;28;20087;-57
2023/08/28 09:09:31;;;;;;;1.13;1.00;;;20.60;99.90;;;;;;4211845;28;20071;-57
2023/08/28 09:11:51;;;;;;;2.63;0.98;;;20.90;99.90;;;;;;4209259;28;20043;-57
2023/08/28 09:14:12;;;;;;;2.42;1.23;;;21.10;99.90;;;;;;4209688;28;20289;-57
2023/08/28 09:16:36;;;;;;;3.70;1.02;;;21.10;99.90;;;;;;4209481;28;20223;-57
2023/08/28 09:18:56;;;;;;;1.48;1.38;;;20.90;99.90;;;;;;4208469;28;20238;-57
2023/08/28 09:21:16;;;;;;;1.60;0.80;;;21.00;99.90;;;;;;4209524;28;20051;-57
2023/08/28 09:23:52;;;;;;;1.55;1.23;;;21.00;99.90;;;;;;4209986;28;20445;-57
2023/08/28 09:26:17;;;;;;;1.17;0.90;;;20.80;99.90;;;;;;4208771;28;20043;-57
2023/08/28 09:28:37;;;;;;;2.80;1.02;;;21.00;99.90;;;;;;4208569;28;20284;-56
2023/08/28 09:30:57;;;;;;;2.25;1.48;;;21.30;99.90;;;;;;4212047;28;20128;-57
2023/08/28 09:33:17;;;;;;;0.88;0.88;;;21.50;99.90;;;;;;4209720;28;20091;-57
2023/08/28 09:35:40;;;;;;;1.92;0.90;;;21.70;99.90;;;;;;4209360;28;20105;-57
2023/08/28 09:38:01;;;;;;;1.85;0.95;;;21.70;99.90;;;;;;4209764;28;20047;-57
2023/08/28 09:40:36;;;;;;;1.90;1.08;;;21.50;99.90;;;;;;4208943;28;20063;-57
2023/08/28 09:42:57;;;;;;;2.80;1.10;;;21.60;99.90;;;;;;4208716;28;20385;-57
2023/08/28 09:45:17;;;;;;;5.57;1.25;;;21.60;99.90;;;;;;4209578;28;20047;-57
2023/08/28 09:47:37;;;;;;;4.13;1.27;;;21.60;99.90;;;;;;4208210;28;20115;-57
2023/08/28 09:49:57;;;;;;;5.03;1.05;;;21.80;99.90;;;;;;4209707;28;20077;-57
2023/08/28 09:52:25;;;;;;;1.35;1.23;;;21.90;99.90;;;;;;4207674;28;20078;-57
2023/08/28 09:55:01;;;;;;;1.92;0.90;;;21.90;99.90;;;;;;4207056;28;20089;-58
2023/08/28 09:57:20;;;;;;;1.58;1.00;;;21.80;99.90;;;;;;4208042;28;20075;-57
2023/08/28 09:59:40;;;;;;;1.63;1.10;;;21.70;99.90;;;;;;4208139;28;20052;-57
2023/08/28 10:02:00;;;;;;;3.30;1.00;;;21.60;99.90;;;;;;4208685;28;20101;-60
2023/08/28 10:04:40;;;;;;;2.97;0.95;;;21.20;99.90;;;;;;4208955;28;20078;-65
2023/08/28 10:07:02;;;;;;;7.20;1.35;;;21.00;99.90;;;;;;4209214;28;20047;-62
2023/08/28 10:09:24;;;;;;;1.25;0.98;;;20.20;99.90;;;;;;4208197;28;20407;-65
2023/08/28 10:11:46;;;;;;;1.52;0.90;;;19.50;99.90;;;;;;4207008;28;20048;-62
2023/08/28 10:14:07;;;;;;;1.20;0.90;;;19.50;99.90;;;;;;4208315;28;20153;-62
2023/08/28 10:16:29;;;;;;;1.90;0.90;;;19.60;99.90;;;;;;4208141;28;20094;-62
2023/08/28 10:18:58;;;;;;;0.82;0.82;;;19.20;99.90;;;;;;4209028;28;20083;-62
2023/08/28 10:21:20;;;;;;;0.80;0.80;;;19.00;99.90;;;;;;4208796;28;20043;-62
2023/08/28 10:23:41;;;;;;;1.58;0.82;;;19.00;99.90;;;;;;4208250;28;20381;-61
2023/08/28 10:26:02;;;;;;;3.35;0.90;;;19.00;99.90;;;;;;4206515;28;20078;-61
2023/08/28 10:28:24;;;;;;;2.55;0.93;;;19.10;99.90;;;;;;4210168;28;20413;-60
2023/08/28 10:30:50;;;;;;;1.55;0.90;;;19.30;99.90;;;;;;4208590;28;20397;-61
2023/08/28 10:33:13;;;;;;;1.77;0.90;;;19.30;99.90;;;;;;4208286;28;20071;-65
2023/08/28 10:35:33;;;;;;;1.15;1.00;;;19.20;99.90;;;;;;4207521;28;20071;-65
2023/08/28 10:37:54;;;;;;;1.30;1.02;;;18.90;99.90;;;;;;4211478;28;20055;-65
2023/08/28 10:40:17;;;;;;;3.03;1.30;;;18.70;99.90;;;;;;4210173;28;20055;-63
2023/08/28 10:42:38;;;;;;;2.05;1.00;;;18.70;99.90;;;;;;4208148;28;20142;-65
2023/08/28 10:44:59;;;;;;;1.30;1.00;;;18.60;99.90;;;;;;4210473;28;20051;-63
2023/08/28 10:47:22;;;;;;;1.55;1.00;;;18.50;99.90;;;;;;4208196;28;20134;-63
2023/08/28 10:49:42;;;;;;;2.28;1.00;;;18.20;99.90;;;;;;4208837;28;20158;-63
2023/08/28 10:52:05;;;;;;;2.88;0.90;;;18.30;99.90;;;;;;4207385;28;20277;-63
2023/08/28 10:54:43;;;;;;;1.00;0.90;;;18.20;99.90;;;;;;4207473;28;20090;-63
2023/08/28 10:57:06;;;;;;;3.28;1.40;;;18.30;99.90;;;;;;4206439;28;20115;-62
2023/08/28 10:59:26;;;;;;;1.35;0.90;;;18.40;99.90;;;;;;4206942;28;20047;-62
2023/08/28 11:01:55;;;;;;;2.05;1.00;;;18.40;99.90;;;;;;4206990;28;20040;-62
2023/08/28 11:04:16;;;;;;;2.35;1.02;;;18.50;99.90;;;;;;4210466;28;20035;-62
2023/08/28 11:06:42;;;;;;;3.00;1.10;;;18.40;99.90;;;;;;4210387;28;20047;-62
2023/08/28 11:09:41;;;;;;;1.17;0.90;;;18.40;99.90;;;;;;4209853;28;20085;-61
2023/08/28 11:12:01;;;;;;;1.25;1.15;;;18.40;99.90;;;;;;4173024;28;20045;-61
2023/08/28 11:14:21;;;;;;;1.23;1.20;;;18.40;99.90;;;;;;4174996;28;20052;-61
2023/08/28 11:16:40;;;;;;;1.33;0.80;;;18.40;99.90;;;;;;4173601;28;20044;-62
2023/08/28 11:19:00;;;;;;;3.22;1.30;;;18.40;99.90;;;;;;4171854;28;20052;-61
2023/08/28 11:21:24;;;;;;;2.20;1.00;;;18.40;99.90;;;;;;4171612;28;20316;-61
2023/08/28 11:23:45;;;;;;;2.75;1.08;;;18.40;99.90;;;;;;4172250;28;20095;-61
2023/08/28 11:26:17;;;;;;;0.98;0.98;;;18.50;99.90;;;;;;4172380;28;20052;-61
2023/08/28 11:28:48;;;;;;;1.10;0.97;;;18.60;99.90;;;;;;4171379;28;20128;-62
2023/08/28 11:31:09;;;;;;;1.45;0.90;;;18.70;99.90;;;;;;4170015;28;20494;-61
2023/08/28 11:33:39;;;;;;;0.98;0.90;;;18.80;99.90;;;;;;4172819;28;20349;-62
2023/08/28 11:36:01;;;;;;;2.55;1.08;;;19.00;99.90;;;;;;4172907;28;20071;-61
2023/08/28 11:38:23;;;;;;;2.58;0.88;;;19.00;99.90;;;;;;4173436;28;20244;-63
2023/08/28 11:40:43;;;;;;;2.35;0.90;;;19.00;99.90;;;;;;4173488;28;20068;-62
2023/08/28 11:43:08;;;;;;;1.42;0.90;;;18.90;99.90;;;;;;4194197;28;20269;-61
2023/08/28 11:45:28;;;;;;;2.75;1.05;;;19.20;99.90;;;;;;4208538;28;20054;-61
2023/08/28 11:47:49;;;;;;;1.73;0.90;;;19.30;99.90;;;;;;4207167;28;20109;-60
2023/08/28 11:50:09;;;;;;;2.22;1.00;;;19.30;99.90;;;;;;4206482;28;20047;-60
2023/08/28 11:52:30;;;;;;;1.50;0.90;;;19.40;99.90;;;;;;4206628;28;20112;-61
2023/08/28 11:54:51;;;;;;;4.22;2.05;;;19.40;99.90;;;;;;4208307;28;20070;-60
2023/08/28 11:57:13;;;;;;;1.00;0.90;;;19.60;99.90;;;;;;4207988;28;20043;-60
2023/08/28 11:59:33;;;;;;;3.05;1.40;;;19.90;99.90;;;;;;4209090;28;20047;-60
2023/08/28 12:01:53;;;;;;;2.35;1.00;;;19.90;99.90;;;;;;4209402;28;20097;-59
2023/08/28 12:04:13;;;;;;;4.10;0.90;;;20.10;99.90;;;;;;4208980;28;20067;-58
2023/08/28 12:06:39;;;;;;;1.00;0.90;;;20.50;99.90;;;;;;4207980;28;20051;-58
2023/08/28 12:08:59;;;;;;;2.08;0.95;;;20.60;99.90;;;;;;4208866;28;20047;-57
2023/08/28 12:11:19;;;;;;;0.80;0.80;;;20.60;99.90;;;;;;4206811;28;20043;-57
2023/08/28 12:13:39;;;;;;;3.33;0.82;;;20.80;99.90;;;;;;4206918;28;20055;-57